createdAt,value
2018-03-14T00:01:15.823Z,7.90
2018-03-14T00:03:46.763Z,7.70
2018-03-14T00:06:17.530Z,7.50
2018-03-14T00:08:48.348Z,7.50
2018-03-14T00:11:19.013Z,7.50
2018-03-14T00:13:49.908Z,7.50
2018-03-14T00:16:21.380Z,7.30
2018-03-14T00:20:16.740Z,7.30
2018-03-14T00:22:49.182Z,7.20
2018-03-14T00:25:19.625Z,7.20
2018-03-14T00:27:50.159Z,7.10
2018-03-14T00:30:21.171Z,7.10
2018-03-14T00:32:52.173Z,7.10
2018-03-14T00:35:22.772Z,7.00
2018-03-14T00:37:53.504Z,6.90
2018-03-14T00:40:24.071Z,7.00
2018-03-14T00:42:55.703Z,7.00
2018-03-14T00:45:27.676Z,7.00
2018-03-14T00:47:59.466Z,6.90
2018-03-14T00:50:29.964Z,6.90
2018-03-14T00:53:01.509Z,6.90
2018-03-14T00:55:32.996Z,6.90
2018-03-14T00:58:03.790Z,6.90
2018-03-14T01:00:35.164Z,6.70
2018-03-14T01:03:06.664Z,6.70
2018-03-14T01:05:37.030Z,6.70
2018-03-14T01:08:08.081Z,6.50
2018-03-14T01:10:39.007Z,6.50
2018-03-14T01:13:10.565Z,6.70
2018-03-14T01:15:41.256Z,6.70
2018-03-14T01:18:19.848Z,6.50
2018-03-14T01:20:53.304Z,6.70
2018-03-14T01:23:23.844Z,6.40
2018-03-14T01:25:54.368Z,6.50
2018-03-14T01:28:25.231Z,6.70
2018-03-14T01:30:56.854Z,6.80
2018-03-14T01:33:27.842Z,6.30
2018-03-14T01:35:59.276Z,6.30
2018-03-14T01:38:30.185Z,6.50
2018-03-14T01:41:01.681Z,6.60
2018-03-14T01:43:32.083Z,6.60
2018-03-14T01:46:02.948Z,6.30
2018-03-14T01:48:33.597Z,6.20
2018-03-14T01:51:04.428Z,6.10
2018-03-14T01:53:35.651Z,6.30
2018-03-14T01:56:06.461Z,6.10
2018-03-14T01:58:37.042Z,6.20
2018-03-14T02:01:08.186Z,6.40
2018-03-14T02:03:38.509Z,6.40
2018-03-14T02:06:09.790Z,6.20
2018-03-14T02:08:43.720Z,5.90
2018-03-14T02:11:14.066Z,5.90
2018-03-14T02:13:44.215Z,6.10
2018-03-14T02:16:14.876Z,5.80
2018-03-14T02:18:45.896Z,5.70
2018-03-14T02:21:16.354Z,5.70
2018-03-14T02:23:47.120Z,5.70
2018-03-14T02:26:17.730Z,5.80
2018-03-14T02:28:48.472Z,5.90
2018-03-14T02:31:19.495Z,6.10
2018-03-14T02:33:50.809Z,6.30
2018-03-14T02:36:30.130Z,6.30
2018-03-14T02:39:01.655Z,6.30
2018-03-14T02:41:33.206Z,6.10
2018-03-14T02:44:04.146Z,6.10
2018-03-14T02:46:35.284Z,6.40
2018-03-14T02:49:06.227Z,6.50
2018-03-14T02:51:36.645Z,6.60
2018-03-14T02:54:08.401Z,6.60
2018-03-14T02:56:39.815Z,6.60
2018-03-14T02:59:10.445Z,6.60
2018-03-14T03:01:41.416Z,6.70
2018-03-14T03:04:13.024Z,6.50
2018-03-14T03:06:43.530Z,6.50
2018-03-14T03:09:14.296Z,6.20
2018-03-14T03:11:44.782Z,6.30
2018-03-14T03:14:16.172Z,6.00
2018-03-14T03:16:47.151Z,6.00
2018-03-14T03:19:17.463Z,5.70
2018-03-14T03:21:47.683Z,5.90
2018-03-14T03:24:17.937Z,6.10
2018-03-14T03:26:48.465Z,5.90
2018-03-14T03:29:19.220Z,5.80
2018-03-14T03:31:49.878Z,5.60
2018-03-14T03:34:20.488Z,5.50
2018-03-14T03:36:50.899Z,5.20
2018-03-14T03:39:22.158Z,5.30
2018-03-14T03:41:52.847Z,5.50
2018-03-14T03:44:23.355Z,5.40
2018-03-14T03:46:54.267Z,5.80
2018-03-14T03:49:24.824Z,5.80
2018-03-14T03:51:55.268Z,5.70
2018-03-14T03:54:26.080Z,5.80
2018-03-14T03:56:57.832Z,5.80
2018-03-14T03:59:28.338Z,5.80
2018-03-14T04:01:59.293Z,5.80
2018-03-14T04:04:29.966Z,5.10
2018-03-14T04:07:02.253Z,5.30
2018-03-14T04:09:33.830Z,5.20
2018-03-14T04:12:05.709Z,5.70
2018-03-14T04:14:36.612Z,5.70
2018-03-14T04:17:07.086Z,5.50
2018-03-14T04:19:38.206Z,5.50
2018-03-14T04:22:08.707Z,5.40
2018-03-14T04:24:40.057Z,5.20
2018-03-14T04:27:11.650Z,5.10
2018-03-14T04:29:43.736Z,5.00
2018-03-14T04:32:14.097Z,5.30
2018-03-14T04:34:45.529Z,5.80
2018-03-14T04:37:16.062Z,5.80
2018-03-14T04:39:47.222Z,5.80
2018-03-14T04:42:18.509Z,5.90
2018-03-14T04:44:50.448Z,5.90
2018-03-14T04:47:21.946Z,5.90
2018-03-14T04:49:52.903Z,5.50
2018-03-14T04:52:24.502Z,5.70
2018-03-14T04:54:54.898Z,5.70
2018-03-14T04:57:26.484Z,5.60
2018-03-14T04:59:56.615Z,5.60
2018-03-14T05:02:26.752Z,5.40
2018-03-14T05:04:57.336Z,5.50
2018-03-14T05:10:15.955Z,5.50
2018-03-14T05:12:46.499Z,5.50
2018-03-14T05:15:16.820Z,5.70
2018-03-14T05:17:47.894Z,5.70
2018-03-14T05:20:18.940Z,5.90
2018-03-14T05:22:50.165Z,5.80
2018-03-14T05:25:20.671Z,5.80
2018-03-14T05:27:52.185Z,5.80
2018-03-14T05:30:25.095Z,5.80
2018-03-14T05:32:56.670Z,5.80
2018-03-14T05:35:27.741Z,5.70
2018-03-14T05:37:58.390Z,5.80
2018-03-14T05:40:28.653Z,5.50
2018-03-14T05:42:59.483Z,5.40
2018-03-14T05:45:30.698Z,5.90
2018-03-14T05:48:01.263Z,5.90
2018-03-14T05:54:04.836Z,6.00
2018-03-14T05:56:35.159Z,6.20
2018-03-14T05:59:06.002Z,6.20
2018-03-14T06:01:36.405Z,6.20
2018-03-14T06:04:07.104Z,6.30
2018-03-14T06:06:41.564Z,6.40
2018-03-14T06:09:12.272Z,6.40
2018-03-14T06:11:42.818Z,6.40
2018-03-14T06:14:16.696Z,6.40
2018-03-14T06:16:55.954Z,6.40
2018-03-14T06:19:30.072Z,6.30
2018-03-14T06:22:01.099Z,6.20
2018-03-14T06:24:33.897Z,6.20
2018-03-14T06:27:09.511Z,6.40
2018-03-14T06:30:12.031Z,5.60
2018-03-14T06:36:22.498Z,5.90
2018-03-14T06:39:06.158Z,5.90
2018-03-14T06:41:37.226Z,5.00
2018-03-14T06:44:07.633Z,5.20
2018-03-14T06:46:46.509Z,5.40
2018-03-14T06:49:18.146Z,5.50
2018-03-14T06:51:49.003Z,5.90
2018-03-14T06:54:20.607Z,6.00
2018-03-14T06:56:51.988Z,6.40
2018-03-14T07:00:34.562Z,6.30
2018-03-14T07:03:14.355Z,6.20
2018-03-14T07:05:56.042Z,6.20
2018-03-14T07:08:29.037Z,6.20
2018-03-14T07:10:59.893Z,6.20
2018-03-14T07:13:30.632Z,6.40
2018-03-14T07:16:01.875Z,6.70
2018-03-14T07:18:36.149Z,6.70
2018-03-14T07:21:10.888Z,6.40
2018-03-14T07:23:45.680Z,6.40
2018-03-14T07:26:18.574Z,6.60
2018-03-14T07:28:57.283Z,6.50
2018-03-14T07:31:33.908Z,6.40
2018-03-14T07:34:04.156Z,6.60
2018-03-14T07:36:34.689Z,6.70
2018-03-14T07:39:06.375Z,7.00
2018-03-14T07:41:37.359Z,7.10
2018-03-14T07:44:12.068Z,7.10
2018-03-14T07:46:42.781Z,7.00
2018-03-14T07:49:13.208Z,6.20
2018-03-14T07:51:44.332Z,5.40
2018-03-14T07:54:19.239Z,5.40
2018-03-14T07:57:01.981Z,5.90
2018-03-14T07:59:33.231Z,6.00
2018-03-14T08:02:04.602Z,6.20
2018-03-14T08:15:41.052Z,6.90
2018-03-14T08:21:29.947Z,6.70
2018-03-14T08:24:07.343Z,6.80
2018-03-14T08:27:05.428Z,6.40
2018-03-14T08:29:38.870Z,6.70
2018-03-14T08:32:12.410Z,6.60
2018-03-14T08:34:43.577Z,6.80
2018-03-14T08:37:19.982Z,6.70
2018-03-14T08:39:50.901Z,6.70
2018-03-14T08:42:31.207Z,7.30
2018-03-14T08:45:02.872Z,7.10
2018-03-14T08:47:33.282Z,7.50
2018-03-14T08:50:18.822Z,7.60
2018-03-14T08:52:54.323Z,7.60
2018-03-14T08:55:29.143Z,7.70
2018-03-14T08:57:59.827Z,7.80
2018-03-14T09:00:36.291Z,7.70
2018-03-14T09:03:12.445Z,7.80
2018-03-14T09:12:44.665Z,7.50
2018-03-14T09:15:19.554Z,7.50
2018-03-14T09:17:53.181Z,7.60
2018-03-14T09:20:36.342Z,7.60
2018-03-14T09:23:15.571Z,7.60
2018-03-14T09:26:26.800Z,7.60
2018-03-14T09:28:59.615Z,7.80
2018-03-14T09:31:31.573Z,8.00
2018-03-14T09:34:05.820Z,7.70
2018-03-14T09:36:36.539Z,7.80
2018-03-14T09:39:07.794Z,8.00
2018-03-14T09:41:41.654Z,7.00
2018-03-14T09:44:13.527Z,7.00
2018-03-14T09:46:45.331Z,6.00
2018-03-14T09:49:22.613Z,5.50
2018-03-14T09:52:09.483Z,5.50
2018-03-14T09:54:40.691Z,5.60
2018-03-14T09:57:12.361Z,6.10
2018-03-14T09:59:42.908Z,6.60
2018-03-14T10:02:13.958Z,6.70
2018-03-14T10:04:49.972Z,6.10
2018-03-14T10:07:22.562Z,6.40
2018-03-14T10:09:55.020Z,6.40
2018-03-14T10:12:29.716Z,6.50
2018-03-14T10:15:04.234Z,7.10
2018-03-14T10:17:37.842Z,7.20
2018-03-14T10:20:14.177Z,7.20
2018-03-14T10:22:46.206Z,7.10
2018-03-14T10:25:22.770Z,6.70
2018-03-14T10:28:00.191Z,6.70
2018-03-14T10:37:21.248Z,7.00
2018-03-14T10:39:56.236Z,7.00
2018-03-14T10:42:28.553Z,7.50
2018-03-14T10:44:59.391Z,7.40
2018-03-14T10:47:42.471Z,7.50
2018-03-14T10:50:23.115Z,7.50
2018-03-14T10:52:54.487Z,7.70
2018-03-14T10:55:28.965Z,8.30
2018-03-14T10:58:05.745Z,8.40
2018-03-14T11:00:50.007Z,7.60
2018-03-14T11:03:31.960Z,6.80
2018-03-14T11:06:02.616Z,6.80
2018-03-14T11:08:33.020Z,6.80
2018-03-14T11:11:04.944Z,7.20
2018-03-14T11:13:54.677Z,7.50
2018-03-14T11:16:32.538Z,7.50
2018-03-14T11:21:46.589Z,6.90
2018-03-14T11:24:19.159Z,7.10
2018-03-14T11:33:59.657Z,7.80
2018-03-14T11:36:30.551Z,7.80
2018-03-14T11:39:03.784Z,7.70
2018-03-14T11:41:38.241Z,7.70
2018-03-14T11:44:09.496Z,8.00
2018-03-14T11:46:41.180Z,8.30
2018-03-14T11:49:30.342Z,8.10
2018-03-14T11:52:01.400Z,7.90
2018-03-14T11:54:32.262Z,7.70
2018-03-14T11:57:03.847Z,7.90
2018-03-14T11:59:34.430Z,7.90
2018-03-14T12:02:05.553Z,8.10
2018-03-14T12:04:36.074Z,8.20
2018-03-14T12:07:08.506Z,8.40
2018-03-14T13:42:46.853Z,8.30
2018-03-14T13:45:17.366Z,7.30
2018-03-14T13:47:47.851Z,7.70
2018-03-14T13:50:19.624Z,8.00
2018-03-14T13:52:51.965Z,8.00
2018-03-14T13:55:57.699Z,8.50
2018-03-14T13:58:29.036Z,7.70
2018-03-14T14:00:59.695Z,7.40
2018-03-14T14:03:33.503Z,7.60
2018-03-14T14:06:08.340Z,7.60
2018-03-14T14:08:41.479Z,7.50
2018-03-14T14:11:12.123Z,7.40
2018-03-14T14:13:42.976Z,7.80
2018-03-14T14:16:14.161Z,7.90
2018-03-14T14:18:45.992Z,7.80
2018-03-14T14:21:32.099Z,7.50
2018-03-14T14:24:07.464Z,7.70
2018-03-14T14:27:36.032Z,7.60
2018-03-14T14:30:06.545Z,7.90
2018-03-14T14:32:38.176Z,8.20
2018-03-14T14:35:08.695Z,7.50
2018-03-14T14:37:43.555Z,7.60
2018-03-14T14:40:16.820Z,7.70
2018-03-14T14:42:51.945Z,8.00
2018-03-14T14:45:26.330Z,7.50
2018-03-14T14:48:00.236Z,7.50
2018-03-14T14:50:31.752Z,7.90
2018-03-14T14:53:06.516Z,7.80
2018-03-14T14:55:37.609Z,7.90
2018-03-14T14:58:20.701Z,8.20
2018-03-14T15:04:33.142Z,8.50
2018-03-14T15:07:05.088Z,7.70
2018-03-14T15:09:37.502Z,7.40
2018-03-14T15:12:08.787Z,7.40
2018-03-14T15:14:46.458Z,7.40
2018-03-14T15:17:19.133Z,7.70
2018-03-14T15:19:50.039Z,7.70
2018-03-14T15:22:59.969Z,7.80
2018-03-14T15:25:41.125Z,7.80
2018-03-14T15:28:15.780Z,7.70
2018-03-14T15:30:48.162Z,7.80
2018-03-14T15:33:19.752Z,8.00
2018-03-14T15:35:53.047Z,8.00
2018-03-14T15:38:23.306Z,8.40
2018-03-14T15:40:54.932Z,8.30
2018-03-14T15:43:26.003Z,7.90
2018-03-14T15:46:05.204Z,8.10
2018-03-14T15:48:40.522Z,8.10
2018-03-14T15:51:14.435Z,8.20
2018-03-14T15:53:48.949Z,8.20
2018-03-14T15:56:20.278Z,8.00
2018-03-14T15:59:05.007Z,8.00
2018-03-14T16:05:14.539Z,7.60
2018-03-14T16:11:15.732Z,7.50
2018-03-14T16:14:03.935Z,7.60
2018-03-14T16:17:07.765Z,7.60
2018-03-14T16:19:40.749Z,7.80
2018-03-14T16:25:15.724Z,7.80
2018-03-14T16:28:06.532Z,7.90
2018-03-14T16:30:39.505Z,7.80
2018-03-14T16:33:14.684Z,7.40
2018-03-14T16:35:53.146Z,7.20
2018-03-14T16:38:31.659Z,7.10
2018-03-14T16:41:02.944Z,7.10
2018-03-14T16:43:34.606Z,7.00
2018-03-14T16:46:05.074Z,7.00
2018-03-14T16:48:39.827Z,6.80
2018-03-14T16:51:11.199Z,6.80
2018-03-14T16:56:34.812Z,6.80
2018-03-14T17:01:25.663Z,6.50
2018-03-14T17:04:14.792Z,6.60
2018-03-14T17:06:51.538Z,6.60
2018-03-14T17:09:42.272Z,6.70
2018-03-14T17:12:15.838Z,6.60
2018-03-14T17:14:46.415Z,6.80
2018-03-14T17:21:37.403Z,6.70
2018-03-14T17:24:47.440Z,6.80
2018-03-14T17:27:26.121Z,6.70
2018-03-14T17:29:58.567Z,6.70
2018-03-14T17:32:38.073Z,6.30
2018-03-14T17:35:11.556Z,5.90
2018-03-14T17:37:45.961Z,6.00
2018-03-14T17:40:17.235Z,5.90
2018-03-14T17:42:47.564Z,6.00
2018-03-14T17:45:19.939Z,6.00
2018-03-14T17:47:51.941Z,5.70
2018-03-14T17:50:26.865Z,5.70
2018-03-14T17:52:58.683Z,5.40
2018-03-14T17:55:28.872Z,5.30
2018-03-14T17:58:03.064Z,5.70
2018-03-14T18:00:34.057Z,5.70
2018-03-14T18:03:05.226Z,5.80
2018-03-14T18:05:55.399Z,5.80
2018-03-14T18:08:25.797Z,5.80
2018-03-14T18:10:57.438Z,5.70
2018-03-14T18:13:28.644Z,5.70
2018-03-14T18:15:59.032Z,5.30
2018-03-14T18:18:31.100Z,4.80
2018-03-14T18:21:02.168Z,5.00
2018-03-14T18:23:33.004Z,5.00
2018-03-14T18:26:04.239Z,5.10
2018-03-14T18:28:35.677Z,5.10
2018-03-14T18:31:11.129Z,4.70
2018-03-14T18:33:41.676Z,4.70
2018-03-14T18:36:14.460Z,4.70
2018-03-14T18:38:45.074Z,4.70
2018-03-14T18:41:15.804Z,4.60
2018-03-14T18:43:46.864Z,4.60
2018-03-14T18:46:18.444Z,4.50
2018-03-14T18:48:48.772Z,4.70
2018-03-14T18:51:19.840Z,4.80
2018-03-14T18:53:54.192Z,4.70
2018-03-14T18:56:25.597Z,4.60
2018-03-14T18:58:56.527Z,4.80
2018-03-14T19:01:28.471Z,4.70
2018-03-14T19:03:58.907Z,4.70
2018-03-14T19:06:29.468Z,4.80
2018-03-14T19:08:59.940Z,4.80
2018-03-14T19:11:30.216Z,4.70
2018-03-14T19:14:01.107Z,4.50
2018-03-14T19:16:31.724Z,4.40
2018-03-14T19:19:02.817Z,4.30
2018-03-14T19:21:34.964Z,4.50
2018-03-14T19:24:07.306Z,4.50
2018-03-14T19:26:40.058Z,4.40
2018-03-14T19:29:12.701Z,3.90
2018-03-14T19:31:44.837Z,3.90
2018-03-14T19:34:17.909Z,3.70
2018-03-14T19:36:50.821Z,3.60
2018-03-14T19:39:22.109Z,3.60
2018-03-14T19:41:52.473Z,3.70
2018-03-14T19:44:23.645Z,3.90
2018-03-14T19:46:54.309Z,3.90
2018-03-14T19:49:25.591Z,3.70
2018-03-14T19:51:56.463Z,4.00
2018-03-14T19:54:27.019Z,3.80
2018-03-14T19:56:57.969Z,3.90
2018-03-14T19:59:29.781Z,3.80
2018-03-14T20:02:00.170Z,3.70
2018-03-14T20:04:30.930Z,3.50
2018-03-14T20:07:01.304Z,3.30
2018-03-14T20:09:34.789Z,3.10
2018-03-14T20:12:07.191Z,3.30
2018-03-14T20:14:43.566Z,3.10
2018-03-14T20:17:16.916Z,3.20
2018-03-14T20:19:47.743Z,3.20
2018-03-14T20:22:19.920Z,3.00
2018-03-14T20:24:51.520Z,3.00
2018-03-14T20:27:22.536Z,2.80
2018-03-14T20:29:53.087Z,3.10
2018-03-14T20:32:26.488Z,3.00
2018-03-14T20:34:57.568Z,3.00
2018-03-14T20:37:27.895Z,2.90
2018-03-14T20:39:58.164Z,3.00
2018-03-14T20:42:28.346Z,2.80
2018-03-14T20:44:59.071Z,2.70
2018-03-14T20:47:30.192Z,2.70
2018-03-14T20:50:00.643Z,2.90
2018-03-14T20:52:31.638Z,3.20
2018-03-14T20:55:02.752Z,3.20
2018-03-14T20:57:33.092Z,3.20
2018-03-14T21:00:04.013Z,3.30
2018-03-14T21:02:35.072Z,3.40
2018-03-14T21:05:06.132Z,2.90
2018-03-14T21:07:36.447Z,2.90
2018-03-14T21:10:08.105Z,2.60
2018-03-14T21:12:40.513Z,2.40
2018-03-14T21:15:11.471Z,2.40
2018-03-14T21:17:42.356Z,2.40
2018-03-14T21:20:13.305Z,2.30
2018-03-14T21:22:45.082Z,2.40
2018-03-14T21:25:16.712Z,2.50
2018-03-14T21:27:48.621Z,2.70
2018-03-14T21:30:19.024Z,2.70
2018-03-14T21:32:50.081Z,2.90
2018-03-14T21:35:20.790Z,2.70
2018-03-14T21:37:51.504Z,2.70
2018-03-14T21:40:22.020Z,2.40
2018-03-14T21:42:52.492Z,2.30
2018-03-14T21:45:31.075Z,2.30
2018-03-14T21:48:01.252Z,2.10
2018-03-14T21:50:32.550Z,2.00
2018-03-14T21:53:03.594Z,1.80
2018-03-14T21:55:39.570Z,1.80
2018-03-14T21:58:11.522Z,1.90
2018-03-14T22:00:42.626Z,1.90
2018-03-14T22:03:13.822Z,2.50
2018-03-14T22:05:44.074Z,2.50
2018-03-14T22:08:14.769Z,2.70
2018-03-14T22:10:46.099Z,2.70
2018-03-14T22:13:17.107Z,2.70
2018-03-14T22:16:06.729Z,2.70
2018-03-14T22:18:42.203Z,2.40
2018-03-14T22:21:13.338Z,2.20
2018-03-14T22:23:44.199Z,2.20
2018-03-14T22:26:14.435Z,2.20
2018-03-14T22:28:45.067Z,2.20
2018-03-14T22:31:16.624Z,2.00
2018-03-14T22:33:53.743Z,1.90
2018-03-14T22:36:35.164Z,1.90
2018-03-14T22:39:05.997Z,2.10
2018-03-14T22:41:36.528Z,2.10
2018-03-14T22:44:07.315Z,2.10
2018-03-14T22:46:38.416Z,2.00
2018-03-14T22:49:09.429Z,1.70
2018-03-14T22:51:40.299Z,1.70
2018-03-14T22:54:11.396Z,1.50
2018-03-14T22:56:42.808Z,1.60
2018-03-14T22:59:14.570Z,1.60
2018-03-14T23:01:45.647Z,1.40
2018-03-14T23:04:17.111Z,1.30
2018-03-14T23:06:47.988Z,1.30
2018-03-14T23:09:18.218Z,1.20
2018-03-14T23:11:48.421Z,1.30
2018-03-14T23:14:19.211Z,1.40
2018-03-14T23:16:49.496Z,1.40
2018-03-14T23:19:19.673Z,1.50
2018-03-14T23:21:51.148Z,1.70
2018-03-14T23:24:21.769Z,1.70
2018-03-14T23:26:53.072Z,1.30
2018-03-14T23:29:25.118Z,1.20
2018-03-14T23:31:55.310Z,1.10
2018-03-14T23:34:25.550Z,1.20
2018-03-14T23:36:56.041Z,1.30
2018-03-14T23:39:26.260Z,1.30
2018-03-14T23:41:56.870Z,1.20
2018-03-14T23:44:27.093Z,1.40
2018-03-14T23:46:59.509Z,1.30
2018-03-14T23:49:30.149Z,1.30
2018-03-14T23:52:00.354Z,1.20
2018-03-14T23:54:30.575Z,1.10
2018-03-14T23:57:00.906Z,1.00
2018-03-14T23:59:31.118Z,1.00
